createdAt,value
2022-11-16T00:00:49.700Z,96.39
2022-11-16T00:01:50.611Z,96.19
2022-11-16T00:02:51.409Z,96.23
2022-11-16T00:03:52.258Z,96.19
2022-11-16T00:04:53.109Z,96.84
2022-11-16T00:05:53.961Z,97.16
2022-11-16T00:06:54.853Z,97.25
2022-11-16T00:07:56.119Z,97.87
2022-11-16T00:08:56.485Z,97.87
2022-11-16T00:09:57.319Z,99.29
2022-11-16T00:10:58.165Z,98.79
2022-11-16T00:11:59.017Z,98.68
2022-11-16T00:12:59.891Z,98.99
2022-11-16T00:14:00.693Z,99.19
2022-11-16T00:15:01.543Z,98.93
2022-11-16T00:16:02.394Z,99.34
2022-11-16T00:17:03.244Z,99.85
2022-11-16T00:18:04.113Z,99.99
2022-11-16T00:19:04.966Z,99.24
2022-11-16T00:20:05.813Z,99.95
2022-11-16T00:21:06.664Z,99.75
2022-11-16T00:22:07.517Z,99.99
2022-11-16T00:23:08.371Z,99.99
2022-11-16T00:24:09.241Z,99.99
2022-11-16T00:25:10.070Z,99.99
2022-11-16T00:26:10.926Z,99.95
2022-11-16T00:27:11.775Z,99.99
2022-11-16T00:28:12.656Z,99.99
2022-11-16T00:29:13.434Z,99.99
2022-11-16T00:30:14.286Z,99.99
2022-11-16T00:31:15.132Z,99.99
2022-11-16T00:32:15.982Z,99.99
2022-11-16T00:33:17.119Z,99.99
2022-11-16T00:34:17.466Z,99.99
2022-11-16T00:35:18.326Z,99.99
2022-11-16T00:36:19.190Z,99.99
2022-11-16T00:37:20.052Z,99.99
2022-11-16T00:38:21.116Z,99.99
2022-11-16T00:39:21.486Z,99.99
2022-11-16T00:40:22.319Z,99.99
2022-11-16T00:41:23.168Z,99.99
2022-11-16T00:42:24.020Z,99.99
2022-11-16T00:43:24.910Z,99.99
2022-11-16T00:44:25.720Z,99.99
2022-11-16T00:45:26.571Z,99.99
2022-11-16T00:46:27.427Z,99.99
2022-11-16T00:47:28.291Z,99.99
2022-11-16T00:48:29.156Z,99.99
2022-11-16T00:49:30.005Z,99.99
2022-11-16T00:50:30.854Z,99.99
2022-11-16T00:51:31.708Z,99.99
2022-11-16T00:52:32.558Z,99.99
2022-11-16T00:53:33.419Z,99.99
2022-11-16T00:54:34.289Z,99.99
2022-11-16T00:55:35.121Z,99.99
2022-11-16T00:56:35.976Z,99.99
2022-11-16T00:57:36.824Z,99.99
2022-11-16T00:58:37.699Z,99.99
2022-11-16T00:59:38.482Z,99.99
2022-11-16T01:00:39.333Z,99.99
2022-11-16T01:01:40.246Z,99.99
2022-11-16T01:02:41.153Z,99.99
2022-11-16T01:03:42.613Z,99.99
2022-11-16T01:04:42.967Z,99.99
2022-11-16T01:05:43.833Z,99.99
2022-11-16T01:06:44.681Z,99.99
2022-11-16T01:07:45.540Z,99.99
2022-11-16T01:08:46.408Z,99.99
2022-11-16T01:09:47.274Z,99.99
2022-11-16T01:10:48.128Z,99.99
2022-11-16T01:11:48.977Z,99.99
2022-11-16T01:12:49.829Z,99.99
2022-11-16T01:13:51.131Z,99.99
2022-11-16T01:14:51.438Z,99.99
2022-11-16T01:15:52.384Z,99.99
2022-11-16T01:16:53.238Z,99.99
2022-11-16T01:17:54.090Z,99.99
2022-11-16T01:18:55.124Z,99.99
2022-11-16T01:19:55.483Z,99.99
2022-11-16T01:20:56.340Z,99.99
2022-11-16T01:21:57.195Z,99.99
2022-11-16T01:22:58.061Z,99.99
2022-11-16T01:23:58.925Z,99.99
2022-11-16T01:24:59.796Z,99.99
2022-11-16T01:26:00.647Z,99.99
2022-11-16T01:27:01.494Z,99.99
2022-11-16T01:28:02.350Z,99.99
2022-11-16T01:29:03.237Z,99.99
2022-11-16T01:30:04.034Z,99.99
2022-11-16T01:31:04.881Z,99.99
2022-11-16T01:32:05.733Z,99.99
2022-11-16T01:33:06.586Z,99.99
2022-11-16T01:34:07.615Z,99.99
2022-11-16T01:35:07.968Z,99.99
2022-11-16T01:36:08.822Z,99.99
2022-11-16T01:37:09.688Z,99.99
2022-11-16T01:38:10.545Z,99.99
2022-11-16T01:39:11.398Z,99.99
2022-11-16T01:40:12.269Z,99.99
2022-11-16T01:41:13.104Z,99.99
2022-11-16T01:42:13.959Z,99.99
2022-11-16T01:43:14.809Z,99.99
2022-11-16T01:44:15.699Z,99.99
2022-11-16T01:45:16.528Z,99.99
2022-11-16T01:46:17.381Z,99.99
2022-11-16T01:47:18.230Z,99.99
2022-11-16T01:48:19.112Z,99.99
2022-11-16T01:49:19.947Z,99.99
2022-11-16T01:50:20.796Z,99.99
2022-11-16T01:51:21.654Z,99.99
2022-11-16T01:52:22.502Z,99.99
2022-11-16T01:53:23.352Z,99.99
2022-11-16T01:54:24.211Z,99.99
2022-11-16T01:55:25.105Z,99.99
2022-11-16T01:56:25.939Z,99.99
2022-11-16T01:57:26.791Z,99.99
2022-11-16T01:58:27.639Z,99.99
2022-11-16T01:59:28.518Z,99.99
2022-11-16T02:00:29.305Z,99.99
2022-11-16T02:01:30.276Z,99.99
2022-11-16T02:02:31.146Z,99.99
2022-11-16T02:03:31.996Z,99.99
2022-11-16T02:04:33.113Z,99.99
2022-11-16T02:05:33.461Z,99.99
2022-11-16T02:06:34.323Z,99.99
2022-11-16T02:07:35.271Z,99.99
2022-11-16T02:08:36.478Z,99.99
2022-11-16T02:09:37.111Z,99.99
2022-11-16T02:10:37.480Z,99.99
2022-11-16T02:11:38.318Z,99.99
2022-11-16T02:12:43.296Z,99.99
2022-11-16T02:13:39.680Z,99.99
2022-11-16T02:14:40.558Z,99.99
2022-11-16T02:15:41.341Z,99.99
2022-11-16T02:16:42.193Z,99.99
2022-11-16T02:17:43.060Z,99.99
2022-11-16T02:18:43.913Z,99.99
2022-11-16T02:19:45.115Z,99.99
2022-11-16T02:20:45.479Z,99.99
2022-11-16T02:21:46.332Z,99.99
2022-11-16T02:22:47.199Z,99.99
2022-11-16T02:23:48.051Z,99.99
2022-11-16T02:24:49.108Z,99.99
2022-11-16T02:25:49.480Z,99.99
2022-11-16T02:26:50.312Z,99.99
2022-11-16T02:27:51.168Z,99.99
2022-11-16T02:28:52.016Z,99.99
2022-11-16T02:29:52.893Z,99.99
2022-11-16T02:30:53.726Z,99.99
2022-11-16T02:31:54.578Z,99.99
2022-11-16T02:32:55.435Z,99.99
2022-11-16T02:33:56.292Z,99.99
2022-11-16T02:34:57.152Z,99.99
2022-11-16T02:35:58.002Z,99.99
2022-11-16T02:36:58.852Z,99.99
2022-11-16T02:37:59.705Z,99.99
2022-11-16T02:39:00.573Z,99.99
2022-11-16T02:40:01.605Z,99.99
2022-11-16T02:41:01.977Z,99.99
2022-11-16T02:42:02.830Z,99.99
2022-11-16T02:43:03.681Z,99.99
2022-11-16T02:44:04.533Z,99.99
2022-11-16T02:45:05.637Z,99.99
2022-11-16T02:46:05.927Z,99.99
2022-11-16T02:47:06.785Z,99.99
2022-11-16T02:48:07.633Z,99.99
2022-11-16T02:49:08.478Z,99.99
2022-11-16T02:50:09.616Z,99.99
2022-11-16T02:51:09.970Z,99.99
2022-11-16T02:52:10.821Z,99.99
2022-11-16T02:53:11.674Z,99.99
2022-11-16T02:54:12.523Z,99.99
2022-11-16T02:55:13.381Z,99.99
2022-11-16T02:56:14.251Z,99.99
2022-11-16T02:57:15.082Z,99.99
2022-11-16T02:58:15.932Z,99.99
2022-11-16T02:59:17.888Z,99.99
2022-11-16T03:00:17.740Z,99.99
2022-11-16T03:01:18.637Z,99.99
2022-11-16T03:02:19.423Z,99.99
2022-11-16T03:03:20.288Z,99.99
2022-11-16T03:04:21.140Z,99.99
2022-11-16T03:05:22.001Z,99.99
2022-11-16T03:06:22.851Z,99.99
2022-11-16T03:07:23.730Z,99.99
2022-11-16T03:08:24.555Z,99.99
2022-11-16T03:09:25.421Z,99.99
2022-11-16T03:10:26.280Z,99.99
2022-11-16T03:11:27.171Z,99.99
2022-11-16T03:12:27.986Z,99.99
2022-11-16T03:13:28.847Z,99.99
2022-11-16T03:14:29.693Z,99.99
2022-11-16T03:15:30.623Z,99.99
2022-11-16T03:16:31.444Z,99.99
2022-11-16T03:17:32.295Z,99.99
2022-11-16T03:18:33.379Z,99.99
2022-11-16T03:19:33.776Z,99.99
2022-11-16T03:20:35.108Z,99.99
2022-11-16T03:21:35.459Z,99.99
2022-11-16T03:22:36.307Z,99.99
2022-11-16T03:23:37.161Z,99.99
2022-11-16T03:24:38.010Z,99.99
2022-11-16T03:25:38.872Z,99.99
2022-11-16T03:26:39.738Z,99.99
2022-11-16T03:27:40.576Z,99.99
2022-11-16T03:28:41.423Z,99.99
2022-11-16T03:29:42.273Z,99.99
2022-11-16T03:30:43.175Z,99.99
2022-11-16T03:31:43.958Z,99.99
2022-11-16T03:32:44.811Z,99.99
2022-11-16T03:33:45.706Z,99.99
2022-11-16T03:34:46.557Z,99.99
2022-11-16T03:35:47.420Z,99.99
2022-11-16T03:36:48.270Z,99.99
2022-11-16T03:37:49.120Z,99.99
2022-11-16T03:38:49.969Z,99.99
2022-11-16T03:39:50.821Z,99.99
2022-11-16T03:40:51.683Z,99.99
2022-11-16T03:41:52.603Z,99.99
2022-11-16T03:42:53.436Z,99.99
2022-11-16T03:43:54.357Z,99.99
2022-11-16T03:44:55.213Z,99.99
2022-11-16T03:45:56.098Z,99.99
2022-11-16T03:46:56.930Z,99.99
2022-11-16T03:47:57.780Z,99.99
2022-11-16T03:48:58.675Z,99.99
2022-11-16T03:49:59.482Z,99.99
2022-11-16T03:51:00.352Z,99.99
2022-11-16T03:52:01.208Z,99.99
2022-11-16T03:53:02.067Z,99.99
2022-11-16T03:54:02.914Z,99.99
2022-11-16T03:55:03.770Z,99.99
2022-11-16T03:56:04.629Z,99.99
2022-11-16T03:57:05.497Z,99.99
2022-11-16T03:58:06.331Z,99.99
2022-11-16T03:59:07.184Z,99.99
2022-11-16T04:00:08.036Z,99.99
2022-11-16T04:01:09.196Z,99.99
2022-11-16T04:02:09.527Z,99.99
2022-11-16T04:03:10.375Z,99.99
2022-11-16T04:04:11.293Z,99.99
2022-11-16T04:05:12.142Z,99.99
2022-11-16T04:06:13.107Z,99.99
2022-11-16T04:07:14.049Z,99.99
2022-11-16T04:08:14.855Z,99.99
2022-11-16T04:09:15.703Z,99.99
2022-11-16T04:10:16.561Z,99.99
2022-11-16T04:11:17.602Z,99.99
2022-11-16T04:12:17.981Z,99.99
2022-11-16T04:13:18.819Z,99.99
2022-11-16T04:14:19.687Z,99.99
2022-11-16T04:15:20.536Z,99.99
2022-11-16T04:16:21.618Z,99.99
2022-11-16T04:17:21.905Z,99.99
2022-11-16T04:18:22.760Z,99.99
2022-11-16T04:19:23.613Z,99.99
2022-11-16T04:20:24.478Z,99.99
2022-11-16T04:21:25.608Z,99.99
2022-11-16T04:22:25.973Z,99.99
2022-11-16T04:23:26.843Z,99.99
2022-11-16T04:24:27.691Z,99.99
2022-11-16T04:25:28.544Z,99.99
2022-11-16T04:26:29.602Z,99.99
2022-11-16T04:27:30.011Z,99.99
2022-11-16T04:28:30.845Z,99.99
2022-11-16T04:29:31.679Z,99.99
2022-11-16T04:30:32.531Z,99.99
2022-11-16T04:31:33.409Z,99.99
2022-11-16T04:32:34.209Z,99.99
2022-11-16T04:33:35.071Z,99.99
2022-11-16T04:34:35.924Z,99.99
2022-11-16T04:35:36.777Z,99.99
2022-11-16T04:36:38.104Z,99.99
2022-11-16T04:37:38.454Z,99.99
2022-11-16T04:38:39.307Z,99.99
2022-11-16T04:39:40.157Z,99.99
2022-11-16T04:40:41.020Z,99.99
2022-11-16T04:41:42.099Z,99.99
2022-11-16T04:42:42.490Z,99.99
2022-11-16T04:43:44.346Z,99.99
2022-11-16T04:44:44.111Z,99.99
2022-11-16T04:45:44.973Z,99.99
2022-11-16T04:46:45.861Z,99.99
2022-11-16T04:47:46.652Z,99.99
2022-11-16T04:48:47.504Z,99.99
2022-11-16T04:49:48.354Z,99.99
2022-11-16T04:50:49.209Z,99.99
2022-11-16T04:51:50.064Z,99.99
2022-11-16T04:52:50.913Z,99.99
2022-11-16T04:53:51.784Z,99.99
2022-11-16T04:54:52.638Z,99.99
2022-11-16T04:55:56.677Z,99.99
2022-11-16T04:56:55.241Z,99.99
2022-11-16T04:57:55.120Z,99.99
2022-11-16T04:58:55.955Z,99.99
2022-11-16T04:59:56.805Z,99.99
2022-11-16T05:00:57.746Z,99.99
2022-11-16T05:01:58.608Z,99.99
2022-11-16T05:03:01.486Z,99.99
2022-11-16T05:04:00.425Z,99.99
2022-11-16T05:05:01.275Z,99.99
2022-11-16T05:06:02.126Z,99.99
2022-11-16T05:07:03.019Z,99.99
2022-11-16T05:08:03.841Z,99.99
2022-11-16T05:09:04.710Z,99.99
2022-11-16T05:10:05.561Z,99.99
2022-11-16T05:11:06.412Z,99.99
2022-11-16T05:12:07.272Z,99.99
2022-11-16T05:13:08.167Z,99.99
2022-11-16T05:14:09.006Z,99.99
2022-11-16T05:15:09.861Z,99.99
2022-11-16T05:16:10.739Z,99.99
2022-11-16T05:17:11.615Z,99.99
2022-11-16T05:18:12.580Z,99.99
2022-11-16T05:19:13.469Z,99.99
2022-11-16T05:20:14.318Z,99.99
2022-11-16T05:21:15.169Z,99.99
2022-11-16T05:22:16.049Z,99.99
2022-11-16T05:23:16.894Z,99.99
2022-11-16T05:24:17.749Z,99.99
2022-11-16T05:25:18.613Z,99.99
2022-11-16T05:26:19.446Z,99.99
2022-11-16T05:27:20.306Z,99.99
2022-11-16T05:28:21.193Z,99.99
2022-11-16T05:29:22.023Z,99.99
2022-11-16T05:30:22.875Z,99.99
2022-11-16T05:31:23.726Z,99.99
2022-11-16T05:32:24.605Z,99.99
2022-11-16T05:33:25.390Z,99.99
2022-11-16T05:34:26.243Z,99.99
2022-11-16T05:35:27.106Z,99.99
2022-11-16T05:36:27.960Z,99.99
2022-11-16T05:37:28.821Z,99.99
2022-11-16T05:38:29.669Z,99.99
2022-11-16T05:39:30.525Z,99.99
2022-11-16T05:40:31.375Z,99.99
2022-11-16T05:41:32.227Z,99.99
2022-11-16T05:42:33.088Z,99.99
2022-11-16T05:43:33.969Z,99.99
2022-11-16T05:44:34.801Z,99.99
2022-11-16T05:45:35.658Z,99.99
2022-11-16T05:46:36.510Z,99.99
2022-11-16T05:47:37.399Z,99.99
2022-11-16T05:48:38.191Z,99.99
2022-11-16T05:49:39.048Z,99.99
2022-11-16T05:50:42.710Z,99.99
2022-11-16T05:51:40.507Z,99.99
2022-11-16T05:52:41.597Z,99.99
2022-11-16T05:53:41.951Z,99.99
2022-11-16T05:54:42.803Z,99.99
2022-11-16T05:55:43.808Z,99.99
2022-11-16T05:56:44.597Z,99.99
2022-11-16T05:57:45.454Z,99.99
2022-11-16T05:58:46.324Z,99.99
2022-11-16T05:59:47.159Z,99.99
2022-11-16T06:00:48.005Z,99.99
2022-11-16T06:01:48.859Z,99.99
2022-11-16T06:02:50.158Z,99.99
2022-11-16T06:03:50.455Z,99.99
2022-11-16T06:04:51.325Z,99.99
2022-11-16T06:05:52.157Z,99.99
2022-11-16T06:06:53.079Z,99.99
2022-11-16T06:07:53.900Z,99.99
2022-11-16T06:08:54.761Z,99.99
2022-11-16T06:09:55.614Z,99.99
2022-11-16T06:10:56.464Z,99.99
2022-11-16T06:11:57.318Z,99.99
2022-11-16T06:12:58.178Z,99.99
2022-11-16T06:13:59.029Z,99.99
2022-11-16T06:14:59.885Z,99.99
2022-11-16T06:16:01.000Z,99.99
2022-11-16T06:17:01.274Z,99.99
2022-11-16T06:18:02.163Z,99.99
2022-11-16T06:19:02.995Z,99.99
2022-11-16T06:20:03.839Z,99.99
2022-11-16T06:21:04.705Z,99.99
2022-11-16T06:22:05.561Z,99.99
2022-11-16T06:23:06.424Z,99.99
2022-11-16T06:24:07.266Z,99.99
2022-11-16T06:25:08.141Z,99.99
2022-11-16T06:26:08.993Z,99.99
2022-11-16T06:27:09.856Z,99.99
2022-11-16T06:28:11.098Z,99.99
2022-11-16T06:29:11.448Z,99.99
2022-11-16T06:30:12.296Z,99.99
2022-11-16T06:31:13.162Z,99.99
2022-11-16T06:32:13.995Z,99.99
2022-11-16T06:33:15.111Z,99.99
2022-11-16T06:34:15.420Z,99.99
2022-11-16T06:35:16.289Z,99.99
2022-11-16T06:36:17.193Z,99.99
2022-11-16T06:37:17.995Z,99.99
2022-11-16T06:38:19.095Z,99.99
2022-11-16T06:39:19.476Z,99.99
2022-11-16T06:40:20.344Z,99.99
2022-11-16T06:41:21.198Z,99.99
2022-11-16T06:42:22.050Z,99.99
2022-11-16T06:43:22.905Z,99.99
2022-11-16T06:44:23.758Z,99.99
2022-11-16T06:45:24.618Z,99.99
2022-11-16T06:46:25.486Z,99.99
2022-11-16T06:47:26.358Z,99.99
2022-11-16T06:48:27.632Z,99.99
2022-11-16T06:49:27.954Z,99.99
2022-11-16T06:50:29.023Z,99.99
2022-11-16T06:51:29.384Z,99.99
2022-11-16T06:52:30.257Z,99.99
2022-11-16T06:53:31.592Z,99.99
2022-11-16T06:54:31.945Z,99.99
2022-11-16T06:55:32.796Z,99.99
2022-11-16T06:56:33.648Z,99.99
2022-11-16T06:57:34.543Z,99.99
2022-11-16T06:58:35.926Z,99.99
2022-11-16T06:59:35.965Z,99.99
2022-11-16T07:00:36.823Z,99.99
2022-11-16T07:01:37.835Z,99.99
2022-11-16T07:02:38.649Z,99.99
2022-11-16T07:03:39.521Z,99.99
2022-11-16T07:04:40.320Z,99.99
2022-11-16T07:05:41.185Z,99.99
2022-11-16T07:06:42.038Z,99.99
2022-11-16T07:07:42.891Z,99.99
2022-11-16T07:08:44.099Z,99.99
2022-11-16T07:09:44.490Z,99.99
2022-11-16T07:10:45.333Z,99.99
2022-11-16T07:11:46.186Z,99.99
2022-11-16T07:12:47.033Z,99.99
2022-11-16T07:13:48.092Z,99.99
2022-11-16T07:14:48.446Z,99.99
2022-11-16T07:15:49.290Z,99.99
2022-11-16T07:16:53.734Z,99.99
2022-11-16T07:17:51.894Z,99.99
2022-11-16T07:18:52.134Z,99.99
2022-11-16T07:19:52.447Z,99.99
2022-11-16T07:20:53.287Z,99.99
2022-11-16T07:21:54.152Z,99.99
2022-11-16T07:22:55.006Z,99.99
2022-11-16T07:23:55.867Z,99.99
2022-11-16T07:24:56.728Z,99.99
2022-11-16T07:25:57.590Z,99.99
2022-11-16T07:26:58.447Z,99.99
2022-11-16T07:27:59.316Z,99.99
2022-11-16T07:29:00.178Z,99.99
2022-11-16T07:30:01.023Z,99.99
2022-11-16T07:31:01.874Z,99.99
2022-11-16T07:32:02.767Z,99.99
2022-11-16T07:33:03.596Z,99.99
2022-11-16T07:34:04.474Z,99.99
2022-11-16T07:35:05.280Z,99.99
2022-11-16T07:36:06.125Z,99.99
2022-11-16T07:37:06.991Z,99.99
2022-11-16T07:38:07.847Z,99.99
2022-11-16T07:39:08.707Z,99.99
2022-11-16T07:40:09.572Z,99.99
2022-11-16T07:41:10.423Z,99.99
2022-11-16T07:42:11.279Z,99.99
2022-11-16T07:43:12.128Z,99.99
2022-11-16T07:44:12.994Z,99.99
2022-11-16T07:45:13.839Z,99.99
2022-11-16T07:47:16.550Z,99.99
2022-11-16T07:48:16.334Z,99.99
2022-11-16T07:49:17.232Z,99.99
2022-11-16T07:50:18.051Z,99.70
2022-11-16T07:51:18.935Z,98.99
2022-11-16T07:52:19.765Z,99.04
2022-11-16T07:53:20.642Z,99.44
2022-11-16T07:54:21.592Z,99.85
2022-11-16T07:55:22.439Z,99.65
2022-11-16T07:56:23.289Z,99.04
2022-11-16T07:57:24.140Z,99.85
2022-11-16T07:58:25.021Z,97.71
2022-11-16T07:59:26.090Z,97.91
2022-11-16T08:00:26.455Z,97.66
2022-11-16T08:01:27.372Z,97.46
2022-11-16T08:02:28.305Z,96.39
2022-11-16T08:03:29.078Z,94.01
2022-11-16T08:04:29.955Z,93.80
2022-11-16T08:05:30.753Z,94.62
2022-11-16T08:06:31.608Z,93.76
2022-11-16T08:07:32.494Z,91.17
2022-11-16T08:08:33.665Z,92.07
2022-11-16T08:09:34.591Z,94.15
2022-11-16T08:10:34.991Z,94.91
2022-11-16T08:11:35.795Z,96.69
2022-11-16T08:12:36.666Z,96.12
2022-11-16T08:13:37.536Z,97.14
2022-11-16T08:14:38.588Z,96.63
2022-11-16T08:15:38.949Z,98.88
2022-11-16T08:16:39.795Z,96.88
2022-11-16T08:17:40.759Z,97.08
2022-11-16T08:18:41.521Z,96.53
2022-11-16T08:19:42.616Z,96.27
2022-11-16T08:20:42.947Z,95.76
2022-11-16T08:21:43.807Z,95.81
2022-11-16T08:22:44.687Z,94.24
2022-11-16T08:23:45.530Z,92.63
2022-11-16T08:25:09.579Z,91.91
2022-11-16T08:25:46.933Z,90.30
2022-11-16T08:26:47.785Z,87.12
2022-11-16T08:27:48.641Z,87.37
2022-11-16T08:28:49.496Z,88.28
2022-11-16T08:29:50.349Z,87.02
2022-11-16T08:30:53.920Z,87.53
2022-11-16T08:31:51.876Z,88.95
2022-11-16T08:32:52.861Z,87.67
2022-11-16T08:33:53.630Z,88.87
2022-11-16T08:34:54.599Z,89.94
2022-11-16T08:35:55.377Z,90.60
2022-11-16T08:36:56.229Z,90.55
2022-11-16T08:37:57.078Z,91.46
2022-11-16T08:38:58.064Z,92.18
2022-11-16T08:39:58.877Z,91.16
2022-11-16T08:40:59.741Z,91.36
2022-11-16T08:42:00.596Z,90.70
2022-11-16T08:43:01.440Z,90.11
2022-11-16T08:44:02.290Z,87.73
2022-11-16T08:45:03.142Z,86.63
2022-11-16T08:46:04.001Z,84.38
2022-11-16T08:47:04.861Z,81.87
2022-11-16T08:48:05.830Z,81.97
2022-11-16T08:49:06.602Z,83.51
2022-11-16T08:50:07.563Z,86.27
2022-11-16T08:51:17.815Z,87.69
2022-11-16T08:52:09.865Z,86.71
2022-11-16T08:53:09.721Z,87.02
2022-11-16T08:54:10.580Z,87.67
2022-11-16T08:55:11.444Z,85.27
2022-11-16T08:56:12.590Z,82.76
2022-11-16T08:57:13.050Z,80.35
2022-11-16T08:58:13.903Z,78.72
2022-11-16T08:59:14.756Z,76.89
2022-11-16T09:00:15.619Z,74.87
2022-11-16T09:01:16.741Z,75.92
2022-11-16T09:02:17.144Z,75.17
2022-11-16T09:03:17.986Z,74.13
2022-11-16T09:04:18.816Z,74.05
2022-11-16T09:05:19.683Z,72.67
2022-11-16T09:06:20.526Z,70.46
2022-11-16T09:07:21.525Z,71.23
2022-11-16T09:08:21.880Z,71.30
2022-11-16T09:09:22.731Z,71.17
2022-11-16T09:10:23.581Z,69.99
2022-11-16T09:11:24.587Z,71.60
2022-11-16T09:12:24.937Z,72.20
2022-11-16T09:13:25.851Z,70.09
2022-11-16T09:14:26.705Z,70.09
2022-11-16T09:15:27.557Z,70.39
2022-11-16T09:16:28.429Z,70.46
2022-11-16T09:17:29.274Z,69.95
2022-11-16T09:18:30.249Z,69.92
2022-11-16T09:19:31.030Z,69.45
2022-11-16T09:20:31.897Z,67.27
2022-11-16T09:21:32.689Z,66.06
2022-11-16T09:22:33.537Z,67.80
2022-11-16T09:23:34.386Z,68.24
2022-11-16T09:24:35.238Z,68.98
2022-11-16T09:25:36.087Z,68.24
2022-11-16T09:26:37.088Z,68.21
2022-11-16T09:27:37.462Z,66.27
2022-11-16T09:28:38.313Z,67.13
2022-11-16T09:29:39.165Z,66.83
2022-11-16T09:30:40.017Z,66.25
2022-11-16T09:31:41.092Z,65.08
2022-11-16T09:32:41.446Z,67.30
2022-11-16T09:33:42.411Z,66.99
2022-11-16T09:34:43.181Z,66.39
2022-11-16T09:35:44.077Z,65.95
2022-11-16T09:36:44.866Z,66.86
2022-11-16T09:37:45.713Z,67.36
2022-11-16T09:39:19.028Z,66.25
2022-11-16T09:39:48.354Z,66.21
2022-11-16T09:40:48.206Z,67.86
2022-11-16T09:41:49.097Z,66.75
2022-11-16T09:42:49.948Z,64.47
2022-11-16T09:43:50.810Z,64.47
2022-11-16T09:44:51.660Z,63.98
2022-11-16T09:45:52.510Z,61.63
2022-11-16T09:46:53.372Z,62.19
2022-11-16T09:47:54.226Z,63.10
2022-11-16T09:48:55.188Z,62.10
2022-11-16T09:50:02.796Z,61.33
2022-11-16T09:50:57.723Z,61.37
2022-11-16T09:51:57.614Z,60.12
2022-11-16T09:52:58.461Z,57.51
2022-11-16T09:53:59.313Z,58.17
2022-11-16T09:55:00.159Z,59.46
2022-11-16T09:56:01.011Z,60.57
2022-11-16T09:57:01.872Z,59.94
2022-11-16T09:58:02.723Z,59.26
2022-11-16T09:59:03.572Z,60.83
2022-11-16T10:00:04.423Z,60.83
2022-11-16T10:01:05.401Z,59.63
2022-11-16T10:02:06.602Z,59.13
2022-11-16T10:03:06.960Z,60.49
2022-11-16T10:04:07.928Z,59.53
2022-11-16T10:05:08.720Z,58.77
2022-11-16T10:06:09.613Z,58.12
2022-11-16T10:07:10.427Z,58.09
2022-11-16T10:08:11.261Z,56.38
2022-11-16T10:09:12.105Z,54.58
2022-11-16T10:10:13.141Z,55.33
2022-11-16T10:11:13.514Z,55.33
2022-11-16T10:12:14.371Z,55.00
2022-11-16T10:13:15.234Z,55.46
2022-11-16T10:14:16.071Z,56.49
2022-11-16T10:15:16.919Z,55.26
2022-11-16T10:16:17.772Z,55.51
2022-11-16T10:17:19.122Z,56.59
2022-11-16T10:18:19.563Z,60.51
2022-11-16T10:19:20.405Z,62.88
2022-11-16T10:20:23.087Z,63.79
2022-11-16T10:21:22.993Z,62.92
2022-11-16T10:22:23.099Z,65.56
2022-11-16T10:23:23.461Z,68.09
2022-11-16T10:24:24.317Z,69.74
2022-11-16T10:25:25.169Z,69.88
2022-11-16T10:26:26.022Z,71.16
2022-11-16T10:27:27.200Z,72.45
2022-11-16T10:28:27.495Z,73.06
2022-11-16T10:29:28.371Z,73.57
2022-11-16T10:30:29.211Z,73.94
2022-11-16T10:31:30.065Z,72.72
2022-11-16T10:32:30.923Z,73.19
2022-11-16T10:33:32.118Z,73.19
2022-11-16T10:34:32.429Z,71.94
2022-11-16T10:35:33.196Z,71.84
2022-11-16T10:36:34.080Z,71.20
2022-11-16T10:37:35.101Z,69.74
2022-11-16T10:38:35.592Z,68.49
2022-11-16T10:39:36.432Z,66.20
2022-11-16T10:40:37.288Z,61.82
2022-11-16T10:41:38.144Z,57.35
2022-11-16T10:42:39.102Z,57.42
2022-11-16T10:43:39.978Z,54.47
2022-11-16T10:44:40.831Z,52.75
2022-11-16T10:45:41.686Z,54.25
2022-11-16T10:46:42.556Z,54.35
2022-11-16T10:47:43.414Z,54.88
2022-11-16T10:48:44.264Z,55.33
2022-11-16T10:49:45.225Z,56.64
2022-11-16T10:50:46.029Z,59.07
2022-11-16T10:51:46.901Z,56.26
2022-11-16T10:52:47.722Z,53.47
2022-11-16T10:53:48.575Z,50.64
2022-11-16T10:54:49.439Z,49.62
2022-11-16T10:55:50.289Z,51.01
2022-11-16T10:56:51.138Z,52.49
2022-11-16T10:57:52.109Z,54.13
2022-11-16T10:58:52.977Z,56.70
2022-11-16T10:59:53.824Z,57.89
2022-11-16T11:00:54.700Z,58.03
2022-11-16T11:01:55.525Z,55.48
2022-11-16T11:02:56.607Z,53.42
2022-11-16T11:03:56.957Z,53.57
2022-11-16T11:04:57.831Z,51.62
2022-11-16T11:05:58.702Z,50.64
2022-11-16T11:06:59.632Z,49.17
2022-11-16T11:08:00.616Z,49.05
2022-11-16T11:09:00.982Z,47.33
2022-11-16T11:10:01.827Z,47.22
2022-11-16T11:11:02.700Z,46.76
2022-11-16T11:12:03.551Z,45.68
2022-11-16T11:13:04.606Z,45.83
2022-11-16T11:14:04.976Z,48.26
2022-11-16T11:15:05.861Z,49.51
2022-11-16T11:16:06.693Z,49.49
2022-11-16T11:17:07.554Z,48.99
2022-11-16T11:18:08.447Z,48.38
2022-11-16T11:19:09.290Z,49.36
2022-11-16T11:20:10.154Z,49.66
2022-11-16T11:21:11.020Z,50.31
2022-11-16T11:22:11.935Z,51.97
2022-11-16T11:23:13.106Z,51.59
2022-11-16T11:24:42.924Z,49.13
2022-11-16T11:25:15.226Z,49.23
2022-11-16T11:26:15.088Z,48.91
2022-11-16T11:27:15.939Z,49.31
2022-11-16T11:28:16.797Z,48.79
2022-11-16T11:29:17.644Z,48.36
2022-11-16T11:30:18.494Z,47.99
2022-11-16T11:31:19.355Z,49.13
2022-11-16T11:32:24.181Z,48.23
2022-11-16T11:33:21.020Z,49.46
2022-11-16T11:34:21.889Z,48.71
2022-11-16T11:35:22.764Z,47.88
2022-11-16T11:36:23.642Z,49.30
2022-11-16T11:37:24.596Z,50.33
2022-11-16T11:38:25.610Z,50.66
2022-11-16T11:39:25.987Z,51.86
2022-11-16T11:40:26.812Z,51.36
2022-11-16T11:41:27.671Z,50.79
2022-11-16T11:42:28.526Z,49.13
2022-11-16T11:43:29.389Z,48.83
2022-11-16T11:44:30.231Z,49.04
2022-11-16T11:45:31.080Z,48.07
2022-11-16T11:47:06.472Z,46.17
2022-11-16T11:48:00.836Z,46.62
2022-11-16T11:48:34.431Z,46.81
2022-11-16T11:49:34.283Z,47.76
2022-11-16T11:50:35.186Z,48.04
2022-11-16T11:51:36.007Z,47.02
2022-11-16T11:52:36.878Z,46.17
2022-11-16T11:53:37.834Z,45.85
2022-11-16T11:54:43.146Z,44.79
2022-11-16T11:55:40.410Z,43.73
2022-11-16T11:56:40.263Z,42.27
2022-11-16T11:57:41.127Z,43.07
2022-11-16T11:58:42.119Z,44.75
2022-11-16T11:59:42.965Z,47.46
2022-11-16T12:00:43.819Z,48.07
2022-11-16T12:01:44.668Z,47.99
2022-11-16T12:02:45.576Z,49.23
2022-11-16T12:03:46.616Z,52.51
2022-11-16T12:04:46.970Z,55.87
2022-11-16T12:05:47.843Z,54.15
2022-11-16T12:06:48.770Z,53.22
2022-11-16T12:07:49.635Z,54.68
2022-11-16T12:08:50.618Z,56.37
2022-11-16T12:09:50.971Z,55.66
2022-11-16T12:10:51.834Z,52.69
2022-11-16T12:11:52.685Z,49.04
2022-11-16T12:12:53.536Z,47.52
2022-11-16T12:13:54.394Z,46.77
2022-11-16T12:14:55.246Z,45.85
2022-11-16T12:15:56.100Z,45.93
2022-11-16T12:16:56.952Z,45.25
2022-11-16T12:17:57.798Z,48.11
2022-11-16T12:18:59.224Z,52.87
2022-11-16T12:19:59.581Z,51.79
2022-11-16T12:21:00.451Z,49.56
2022-11-16T12:22:01.285Z,52.89
2022-11-16T12:23:04.161Z,55.31
2022-11-16T12:24:02.828Z,57.59
2022-11-16T12:25:03.675Z,60.74
2022-11-16T12:26:04.525Z,61.85
2022-11-16T12:27:05.401Z,61.62
2022-11-16T12:28:06.241Z,62.56
2022-11-16T12:29:07.120Z,61.39
2022-11-16T12:30:07.972Z,58.69
2022-11-16T12:31:08.835Z,58.54
2022-11-16T12:32:09.686Z,57.98
2022-11-16T12:33:10.540Z,55.43
2022-11-16T12:34:11.395Z,52.92
2022-11-16T12:35:12.254Z,50.19
2022-11-16T12:36:13.240Z,48.10
2022-11-16T12:37:14.009Z,47.47
2022-11-16T12:38:26.343Z,47.44
2022-11-16T12:39:17.138Z,50.89
2022-11-16T12:40:16.454Z,51.59
2022-11-16T12:41:17.313Z,50.01
2022-11-16T12:42:18.161Z,49.63
2022-11-16T12:43:19.022Z,51.44
2022-11-16T12:44:19.885Z,51.89
2022-11-16T12:45:20.742Z,49.24
2022-11-16T12:46:21.594Z,47.09
2022-11-16T12:47:22.517Z,47.15
2022-11-16T12:48:23.352Z,46.01
2022-11-16T12:49:24.212Z,44.61
2022-11-16T12:50:25.061Z,44.01
2022-11-16T12:51:30.505Z,45.69
2022-11-16T12:52:27.659Z,46.00
2022-11-16T12:53:27.515Z,45.27
2022-11-16T12:54:28.399Z,45.54
2022-11-16T12:55:29.181Z,50.66
2022-11-16T12:56:30.020Z,52.49
2022-11-16T12:57:30.871Z,50.71
2022-11-16T12:58:31.741Z,50.71
2022-11-16T12:59:32.601Z,48.79
2022-11-16T13:00:33.448Z,46.67
2022-11-16T13:01:34.362Z,45.35
2022-11-16T13:02:35.187Z,45.40
2022-11-16T13:03:36.399Z,45.23
2022-11-16T13:04:37.123Z,45.37